sensor_id;sensor_type;location;lat;lon;timestamp;P1;durP1;ratioP1;P2;durP2;ratioP2
28028;SDS011;15345;59.364;18.016;2022-10-16T00:01:19;20.50;;;14.48;;
28028;SDS011;15345;59.364;18.016;2022-10-16T00:02:38;20.20;;;14.77;;
28028;SDS011;15345;59.364;18.016;2022-10-16T00:03:57;18.73;;;14.10;;
28028;SDS011;15345;59.364;18.016;2022-10-16T00:05:16;21.23;;;14.93;;
28028;SDS011;15345;59.364;18.016;2022-10-16T00:06:38;19.83;;;14.55;;
28028;SDS011;15345;59.364;18.016;2022-10-16T00:07:57;20.90;;;15.55;;
28028;SDS011;15345;59.364;18.016;2022-10-16T00:09:16;20.60;;;14.82;;
28028;SDS011;15345;59.364;18.016;2022-10-16T00:10:35;22.27;;;14.88;;
28028;SDS011;15345;59.364;18.016;2022-10-16T00:11:54;22.00;;;14.68;;
28028;SDS011;15345;59.364;18.016;2022-10-16T00:13:13;19.65;;;14.75;;
28028;SDS011;15345;59.364;18.016;2022-10-16T00:14:32;19.80;;;15.05;;
28028;SDS011;15345;59.364;18.016;2022-10-16T00:15:54;20.15;;;14.82;;
28028;SDS011;15345;59.364;18.016;2022-10-16T00:17:13;18.77;;;14.20;;
28028;SDS011;15345;59.364;18.016;2022-10-16T00:18:32;20.25;;;15.45;;
28028;SDS011;15345;59.364;18.016;2022-10-16T00:19:51;22.60;;;14.60;;
28028;SDS011;15345;59.364;18.016;2022-10-16T00:21:15;16.65;;;13.85;;
28028;SDS011;15345;59.364;18.016;2022-10-16T00:22:34;16.85;;;12.50;;
28028;SDS011;15345;59.364;18.016;2022-10-16T00:23:56;17.17;;;13.27;;
28028;SDS011;15345;59.364;18.016;2022-10-16T00:25:15;16.48;;;12.30;;
28028;SDS011;15345;59.364;18.016;2022-10-16T00:26:34;15.68;;;13.20;;
28028;SDS011;15345;59.364;18.016;2022-10-16T00:27:53;18.45;;;13.02;;
28028;SDS011;15345;59.364;18.016;2022-10-16T00:29:12;15.88;;;12.70;;
28028;SDS011;15345;59.364;18.016;2022-10-16T00:30:31;17.73;;;12.68;;
28028;SDS011;15345;59.364;18.016;2022-10-16T00:31:50;16.45;;;12.90;;
28028;SDS011;15345;59.364;18.016;2022-10-16T00:33:09;17.48;;;12.38;;
28028;SDS011;15345;59.364;18.016;2022-10-16T00:34:28;18.27;;;13.32;;
28028;SDS011;15345;59.364;18.016;2022-10-16T00:35:47;18.77;;;12.43;;
28028;SDS011;15345;59.364;18.016;2022-10-16T00:37:06;17.02;;;12.90;;
28028;SDS011;15345;59.364;18.016;2022-10-16T00:38:25;16.55;;;13.35;;
28028;SDS011;15345;59.364;18.016;2022-10-16T00:39:44;15.88;;;12.82;;
28028;SDS011;15345;59.364;18.016;2022-10-16T00:41:03;16.10;;;13.45;;
28028;SDS011;15345;59.364;18.016;2022-10-16T00:42:23;17.08;;;12.85;;
28028;SDS011;15345;59.364;18.016;2022-10-16T00:43:43;16.08;;;12.95;;
28028;SDS011;15345;59.364;18.016;2022-10-16T00:45:02;18.50;;;12.05;;
28028;SDS011;15345;59.364;18.016;2022-10-16T00:46:42;15.68;;;12.35;;
28028;SDS011;15345;59.364;18.016;2022-10-16T00:48:00;13.77;;;11.52;;
28028;SDS011;15345;59.364;18.016;2022-10-16T00:49:20;15.57;;;12.43;;
28028;SDS011;15345;59.364;18.016;2022-10-16T00:50:39;14.07;;;12.05;;
28028;SDS011;15345;59.364;18.016;2022-10-16T00:52:02;15.85;;;12.52;;
28028;SDS011;15345;59.364;18.016;2022-10-16T00:53:21;17.50;;;11.73;;
28028;SDS011;15345;59.364;18.016;2022-10-16T00:54:40;13.65;;;11.57;;
28028;SDS011;15345;59.364;18.016;2022-10-16T00:55:59;14.50;;;12.68;;
28028;SDS011;15345;59.364;18.016;2022-10-16T00:57:18;18.73;;;13.15;;
28028;SDS011;15345;59.364;18.016;2022-10-16T00:58:37;15.95;;;12.18;;
28028;SDS011;15345;59.364;18.016;2022-10-16T00:59:56;17.50;;;12.38;;
28028;SDS011;15345;59.364;18.016;2022-10-16T01:01:16;13.43;;;12.02;;
28028;SDS011;15345;59.364;18.016;2022-10-16T01:02:35;16.42;;;11.95;;
28028;SDS011;15345;59.364;18.016;2022-10-16T01:03:54;15.10;;;12.02;;
28028;SDS011;15345;59.364;18.016;2022-10-16T01:05:13;15.10;;;12.65;;
28028;SDS011;15345;59.364;18.016;2022-10-16T01:06:52;22.05;;;13.23;;
28028;SDS011;15345;59.364;18.016;2022-10-16T01:08:17;14.25;;;12.52;;
28028;SDS011;15345;59.364;18.016;2022-10-16T01:09:47;18.08;;;12.57;;
28028;SDS011;15345;59.364;18.016;2022-10-16T01:11:15;15.18;;;12.95;;
28028;SDS011;15345;59.364;18.016;2022-10-16T01:14:04;13.82;;;12.20;;
28028;SDS011;15345;59.364;18.016;2022-10-16T01:15:32;15.35;;;12.73;;
28028;SDS011;15345;59.364;18.016;2022-10-16T01:16:58;17.10;;;13.27;;
28028;SDS011;15345;59.364;18.016;2022-10-16T01:19:50;17.73;;;12.98;;
28028;SDS011;15345;59.364;18.016;2022-10-16T01:21:11;17.95;;;13.85;;
28028;SDS011;15345;59.364;18.016;2022-10-16T01:22:37;14.65;;;12.88;;
28028;SDS011;15345;59.364;18.016;2022-10-16T01:25:19;15.75;;;12.60;;
28028;SDS011;15345;59.364;18.016;2022-10-16T01:28:01;14.38;;;12.70;;
28028;SDS011;15345;59.364;18.016;2022-10-16T01:29:23;14.70;;;12.55;;
28028;SDS011;15345;59.364;18.016;2022-10-16T01:30:44;16.45;;;12.93;;
28028;SDS011;15345;59.364;18.016;2022-10-16T01:32:10;15.70;;;13.32;;
28028;SDS011;15345;59.364;18.016;2022-10-16T01:33:33;15.15;;;13.20;;
28028;SDS011;15345;59.364;18.016;2022-10-16T01:34:57;15.23;;;12.60;;
28028;SDS011;15345;59.364;18.016;2022-10-16T01:37:46;16.40;;;12.98;;
28028;SDS011;15345;59.364;18.016;2022-10-16T01:39:05;15.10;;;13.30;;
28028;SDS011;15345;59.364;18.016;2022-10-16T01:40:26;13.73;;;11.52;;
28028;SDS011;15345;59.364;18.016;2022-10-16T01:41:47;14.77;;;12.25;;
28028;SDS011;15345;59.364;18.016;2022-10-16T01:43:20;17.13;;;12.05;;
28028;SDS011;15345;59.364;18.016;2022-10-16T01:44:41;15.80;;;12.45;;
28028;SDS011;15345;59.364;18.016;2022-10-16T01:46:01;17.85;;;13.05;;
28028;SDS011;15345;59.364;18.016;2022-10-16T01:47:22;19.85;;;12.98;;
28028;SDS011;15345;59.364;18.016;2022-10-16T01:48:41;14.15;;;12.65;;
28028;SDS011;15345;59.364;18.016;2022-10-16T01:50:01;13.43;;;12.00;;
28028;SDS011;15345;59.364;18.016;2022-10-16T01:51:23;16.50;;;12.35;;
28028;SDS011;15345;59.364;18.016;2022-10-16T01:52:43;14.57;;;11.38;;
28028;SDS011;15345;59.364;18.016;2022-10-16T01:54:04;17.05;;;12.65;;
28028;SDS011;15345;59.364;18.016;2022-10-16T01:55:32;16.15;;;11.95;;
28028;SDS011;15345;59.364;18.016;2022-10-16T01:56:52;13.70;;;11.38;;
28028;SDS011;15345;59.364;18.016;2022-10-16T01:58:12;14.07;;;12.60;;
28028;SDS011;15345;59.364;18.016;2022-10-16T01:59:32;13.90;;;11.73;;
28028;SDS011;15345;59.364;18.016;2022-10-16T02:00:51;11.88;;;10.60;;
28028;SDS011;15345;59.364;18.016;2022-10-16T02:02:12;12.85;;;11.63;;
28028;SDS011;15345;59.364;18.016;2022-10-16T02:03:32;14.35;;;11.10;;
28028;SDS011;15345;59.364;18.016;2022-10-16T02:04:53;11.68;;;10.60;;
28028;SDS011;15345;59.364;18.016;2022-10-16T02:06:13;13.23;;;11.57;;
28028;SDS011;15345;59.364;18.016;2022-10-16T02:07:32;12.48;;;10.73;;
28028;SDS011;15345;59.364;18.016;2022-10-16T02:08:51;11.77;;;10.38;;
28028;SDS011;15345;59.364;18.016;2022-10-16T02:10:12;12.25;;;10.68;;
28028;SDS011;15345;59.364;18.016;2022-10-16T02:11:31;13.00;;;11.60;;
28028;SDS011;15345;59.364;18.016;2022-10-16T02:12:58;11.70;;;10.50;;
28028;SDS011;15345;59.364;18.016;2022-10-16T02:14:18;16.50;;;12.48;;
28028;SDS011;15345;59.364;18.016;2022-10-16T02:15:38;12.35;;;11.13;;
28028;SDS011;15345;59.364;18.016;2022-10-16T02:16:57;14.05;;;11.70;;
28028;SDS011;15345;59.364;18.016;2022-10-16T02:18:16;13.90;;;11.63;;
28028;SDS011;15345;59.364;18.016;2022-10-16T02:19:35;13.13;;;11.20;;
28028;SDS011;15345;59.364;18.016;2022-10-16T02:20:59;14.90;;;11.85;;
28028;SDS011;15345;59.364;18.016;2022-10-16T02:22:21;15.55;;;11.43;;
28028;SDS011;15345;59.364;18.016;2022-10-16T02:25:10;13.25;;;11.20;;
28028;SDS011;15345;59.364;18.016;2022-10-16T02:26:35;12.48;;;10.52;;
28028;SDS011;15345;59.364;18.016;2022-10-16T02:27:57;14.27;;;10.98;;
28028;SDS011;15345;59.364;18.016;2022-10-16T02:29:22;12.82;;;10.80;;
28028;SDS011;15345;59.364;18.016;2022-10-16T02:30:44;14.18;;;10.77;;
28028;SDS011;15345;59.364;18.016;2022-10-16T02:32:04;14.55;;;11.00;;
28028;SDS011;15345;59.364;18.016;2022-10-16T02:33:24;14.68;;;11.30;;
28028;SDS011;15345;59.364;18.016;2022-10-16T02:34:45;18.17;;;11.55;;
28028;SDS011;15345;59.364;18.016;2022-10-16T02:36:04;12.73;;;11.10;;
28028;SDS011;15345;59.364;18.016;2022-10-16T02:37:22;12.75;;;11.32;;
28028;SDS011;15345;59.364;18.016;2022-10-16T02:38:42;16.48;;;10.82;;
28028;SDS011;15345;59.364;18.016;2022-10-16T02:40:00;14.23;;;11.35;;
28028;SDS011;15345;59.364;18.016;2022-10-16T02:41:21;13.70;;;10.38;;
28028;SDS011;15345;59.364;18.016;2022-10-16T02:42:41;13.77;;;11.40;;
28028;SDS011;15345;59.364;18.016;2022-10-16T02:44:00;12.48;;;11.27;;
28028;SDS011;15345;59.364;18.016;2022-10-16T02:45:20;12.80;;;10.63;;
28028;SDS011;15345;59.364;18.016;2022-10-16T02:46:39;13.55;;;10.98;;
28028;SDS011;15345;59.364;18.016;2022-10-16T02:47:58;14.32;;;11.25;;
28028;SDS011;15345;59.364;18.016;2022-10-16T02:49:17;11.93;;;10.50;;
28028;SDS011;15345;59.364;18.016;2022-10-16T02:50:36;14.60;;;10.60;;
28028;SDS011;15345;59.364;18.016;2022-10-16T02:51:55;12.90;;;10.27;;
28028;SDS011;15345;59.364;18.016;2022-10-16T02:53:14;14.13;;;10.73;;
28028;SDS011;15345;59.364;18.016;2022-10-16T02:54:33;12.85;;;10.30;;
28028;SDS011;15345;59.364;18.016;2022-10-16T02:55:51;12.02;;;10.40;;
28028;SDS011;15345;59.364;18.016;2022-10-16T02:57:10;13.57;;;10.55;;
28028;SDS011;15345;59.364;18.016;2022-10-16T02:58:30;13.07;;;10.35;;
28028;SDS011;15345;59.364;18.016;2022-10-16T02:59:49;12.93;;;11.00;;
28028;SDS011;15345;59.364;18.016;2022-10-16T03:01:08;14.07;;;11.13;;
28028;SDS011;15345;59.364;18.016;2022-10-16T03:02:27;11.40;;;10.30;;
28028;SDS011;15345;59.364;18.016;2022-10-16T03:03:46;11.82;;;10.57;;
28028;SDS011;15345;59.364;18.016;2022-10-16T03:05:05;11.88;;;10.63;;
28028;SDS011;15345;59.364;18.016;2022-10-16T03:06:24;11.65;;;10.43;;
28028;SDS011;15345;59.364;18.016;2022-10-16T03:07:43;12.15;;;10.90;;
28028;SDS011;15345;59.364;18.016;2022-10-16T03:09:02;10.88;;;9.35;;
28028;SDS011;15345;59.364;18.016;2022-10-16T03:10:21;13.15;;;10.23;;
28028;SDS011;15345;59.364;18.016;2022-10-16T03:11:40;13.38;;;10.27;;
28028;SDS011;15345;59.364;18.016;2022-10-16T03:12:59;11.88;;;10.15;;
28028;SDS011;15345;59.364;18.016;2022-10-16T03:14:18;13.73;;;10.57;;
28028;SDS011;15345;59.364;18.016;2022-10-16T03:15:37;12.07;;;10.85;;
28028;SDS011;15345;59.364;18.016;2022-10-16T03:16:56;11.57;;;10.07;;
28028;SDS011;15345;59.364;18.016;2022-10-16T03:18:14;11.02;;;9.93;;
28028;SDS011;15345;59.364;18.016;2022-10-16T03:19:33;11.70;;;9.85;;
28028;SDS011;15345;59.364;18.016;2022-10-16T03:20:53;10.68;;;9.70;;
28028;SDS011;15345;59.364;18.016;2022-10-16T03:22:12;10.77;;;9.40;;
28028;SDS011;15345;59.364;18.016;2022-10-16T03:23:31;13.70;;;10.55;;
28028;SDS011;15345;59.364;18.016;2022-10-16T03:24:49;11.65;;;9.50;;
28028;SDS011;15345;59.364;18.016;2022-10-16T03:26:08;10.57;;;9.48;;
28028;SDS011;15345;59.364;18.016;2022-10-16T03:27:27;10.88;;;9.35;;
28028;SDS011;15345;59.364;18.016;2022-10-16T03:28:46;13.88;;;10.20;;
28028;SDS011;15345;59.364;18.016;2022-10-16T03:30:05;10.60;;;9.30;;
28028;SDS011;15345;59.364;18.016;2022-10-16T03:31:24;12.07;;;9.63;;
28028;SDS011;15345;59.364;18.016;2022-10-16T03:32:43;11.23;;;10.10;;
28028;SDS011;15345;59.364;18.016;2022-10-16T03:34:03;15.60;;;10.43;;
28028;SDS011;15345;59.364;18.016;2022-10-16T03:35:22;12.25;;;9.88;;
28028;SDS011;15345;59.364;18.016;2022-10-16T03:36:41;10.80;;;9.80;;
28028;SDS011;15345;59.364;18.016;2022-10-16T03:38:00;11.07;;;9.15;;
28028;SDS011;15345;59.364;18.016;2022-10-16T03:39:19;14.85;;;10.45;;
28028;SDS011;15345;59.364;18.016;2022-10-16T03:40:38;10.55;;;9.48;;
28028;SDS011;15345;59.364;18.016;2022-10-16T03:41:57;14.50;;;9.55;;
28028;SDS011;15345;59.364;18.016;2022-10-16T03:43:16;11.13;;;9.80;;
28028;SDS011;15345;59.364;18.016;2022-10-16T03:44:35;11.18;;;9.82;;
28028;SDS011;15345;59.364;18.016;2022-10-16T03:45:54;12.60;;;9.43;;
28028;SDS011;15345;59.364;18.016;2022-10-16T03:47:13;10.48;;;9.38;;
28028;SDS011;15345;59.364;18.016;2022-10-16T03:48:32;10.27;;;8.88;;
28028;SDS011;15345;59.364;18.016;2022-10-16T03:49:51;10.35;;;9.10;;
28028;SDS011;15345;59.364;18.016;2022-10-16T03:51:10;10.35;;;8.82;;
28028;SDS011;15345;59.364;18.016;2022-10-16T03:52:29;10.10;;;9.10;;
28028;SDS011;15345;59.364;18.016;2022-10-16T03:53:48;11.57;;;9.25;;
28028;SDS011;15345;59.364;18.016;2022-10-16T03:55:07;9.95;;;8.80;;
28028;SDS011;15345;59.364;18.016;2022-10-16T03:56:26;10.18;;;8.63;;
28028;SDS011;15345;59.364;18.016;2022-10-16T03:57:45;12.32;;;9.43;;
28028;SDS011;15345;59.364;18.016;2022-10-16T03:59:04;10.38;;;8.98;;
28028;SDS011;15345;59.364;18.016;2022-10-16T04:00:23;9.95;;;8.55;;
28028;SDS011;15345;59.364;18.016;2022-10-16T04:01:42;8.98;;;8.10;;
28028;SDS011;15345;59.364;18.016;2022-10-16T04:03:01;9.88;;;8.88;;
28028;SDS011;15345;59.364;18.016;2022-10-16T04:04:19;10.60;;;8.95;;
28028;SDS011;15345;59.364;18.016;2022-10-16T04:05:38;9.32;;;8.43;;
28028;SDS011;15345;59.364;18.016;2022-10-16T04:06:58;11.10;;;8.95;;
28028;SDS011;15345;59.364;18.016;2022-10-16T04:08:16;8.85;;;8.13;;
28028;SDS011;15345;59.364;18.016;2022-10-16T04:09:36;9.02;;;8.07;;
28028;SDS011;15345;59.364;18.016;2022-10-16T04:10:54;12.43;;;8.10;;
28028;SDS011;15345;59.364;18.016;2022-10-16T04:12:13;8.38;;;7.68;;
28028;SDS011;15345;59.364;18.016;2022-10-16T04:13:32;8.68;;;7.68;;
28028;SDS011;15345;59.364;18.016;2022-10-16T04:14:52;8.65;;;7.80;;
28028;SDS011;15345;59.364;18.016;2022-10-16T04:16:11;9.13;;;8.27;;
28028;SDS011;15345;59.364;18.016;2022-10-16T04:17:30;9.07;;;8.02;;
28028;SDS011;15345;59.364;18.016;2022-10-16T04:18:48;8.57;;;7.70;;
28028;SDS011;15345;59.364;18.016;2022-10-16T04:20:07;8.02;;;7.20;;
28028;SDS011;15345;59.364;18.016;2022-10-16T04:21:27;9.07;;;8.15;;
28028;SDS011;15345;59.364;18.016;2022-10-16T04:22:46;7.82;;;7.10;;
28028;SDS011;15345;59.364;18.016;2022-10-16T04:24:05;8.05;;;7.28;;
28028;SDS011;15345;59.364;18.016;2022-10-16T04:25:23;10.52;;;8.32;;
28028;SDS011;15345;59.364;18.016;2022-10-16T04:26:42;9.00;;;7.38;;
28028;SDS011;15345;59.364;18.016;2022-10-16T04:28:01;7.90;;;7.13;;
28028;SDS011;15345;59.364;18.016;2022-10-16T04:29:20;12.00;;;7.70;;
28028;SDS011;15345;59.364;18.016;2022-10-16T04:30:39;8.05;;;7.45;;
28028;SDS011;15345;59.364;18.016;2022-10-16T04:31:58;13.85;;;7.15;;
28028;SDS011;15345;59.364;18.016;2022-10-16T04:33:17;8.43;;;7.72;;
28028;SDS011;15345;59.364;18.016;2022-10-16T04:34:36;7.88;;;7.10;;
28028;SDS011;15345;59.364;18.016;2022-10-16T04:35:57;9.68;;;7.55;;
28028;SDS011;15345;59.364;18.016;2022-10-16T04:37:16;8.45;;;7.60;;
28028;SDS011;15345;59.364;18.016;2022-10-16T04:38:35;7.93;;;7.22;;
28028;SDS011;15345;59.364;18.016;2022-10-16T04:39:56;8.38;;;7.32;;
28028;SDS011;15345;59.364;18.016;2022-10-16T04:41:15;8.13;;;7.32;;
28028;SDS011;15345;59.364;18.016;2022-10-16T04:42:34;7.55;;;6.93;;
28028;SDS011;15345;59.364;18.016;2022-10-16T04:43:53;8.25;;;7.47;;
28028;SDS011;15345;59.364;18.016;2022-10-16T04:45:12;7.72;;;6.82;;
28028;SDS011;15345;59.364;18.016;2022-10-16T04:46:31;7.88;;;7.10;;
28028;SDS011;15345;59.364;18.016;2022-10-16T04:47:50;7.43;;;6.75;;
28028;SDS011;15345;59.364;18.016;2022-10-16T04:49:08;10.43;;;7.45;;
28028;SDS011;15345;59.364;18.016;2022-10-16T04:50:27;7.85;;;6.90;;
28028;SDS011;15345;59.364;18.016;2022-10-16T04:51:46;7.47;;;6.78;;
28028;SDS011;15345;59.364;18.016;2022-10-16T04:53:05;6.97;;;6.38;;
28028;SDS011;15345;59.364;18.016;2022-10-16T04:54:24;7.88;;;7.10;;
28028;SDS011;15345;59.364;18.016;2022-10-16T04:55:43;10.40;;;7.53;;
28028;SDS011;15345;59.364;18.016;2022-10-16T04:57:02;7.50;;;6.90;;
28028;SDS011;15345;59.364;18.016;2022-10-16T04:58:23;6.90;;;6.40;;
28028;SDS011;15345;59.364;18.016;2022-10-16T04:59:42;8.70;;;7.20;;
28028;SDS011;15345;59.364;18.016;2022-10-16T05:01:01;9.32;;;7.25;;
28028;SDS011;15345;59.364;18.016;2022-10-16T05:02:20;7.88;;;6.82;;
28028;SDS011;15345;59.364;18.016;2022-10-16T05:03:39;7.82;;;7.00;;
28028;SDS011;15345;59.364;18.016;2022-10-16T05:04:58;9.52;;;7.40;;
28028;SDS011;15345;59.364;18.016;2022-10-16T05:06:17;7.50;;;6.40;;
28028;SDS011;15345;59.364;18.016;2022-10-16T05:07:36;7.95;;;6.00;;
28028;SDS011;15345;59.364;18.016;2022-10-16T05:08:54;7.95;;;6.30;;
28028;SDS011;15345;59.364;18.016;2022-10-16T05:10:14;6.53;;;5.90;;
28028;SDS011;15345;59.364;18.016;2022-10-16T05:11:33;6.63;;;5.97;;
28028;SDS011;15345;59.364;18.016;2022-10-16T05:12:52;6.72;;;6.22;;
28028;SDS011;15345;59.364;18.016;2022-10-16T05:14:11;6.63;;;6.13;;
28028;SDS011;15345;59.364;18.016;2022-10-16T05:15:30;9.00;;;7.13;;
28028;SDS011;15345;59.364;18.016;2022-10-16T05:16:49;9.40;;;6.90;;
28028;SDS011;15345;59.364;18.016;2022-10-16T05:18:09;6.93;;;6.22;;
28028;SDS011;15345;59.364;18.016;2022-10-16T05:19:28;9.13;;;6.20;;
28028;SDS011;15345;59.364;18.016;2022-10-16T05:20:47;6.97;;;6.28;;
28028;SDS011;15345;59.364;18.016;2022-10-16T05:22:05;6.75;;;6.20;;
28028;SDS011;15345;59.364;18.016;2022-10-16T05:23:24;6.97;;;6.30;;
28028;SDS011;15345;59.364;18.016;2022-10-16T05:24:43;8.68;;;6.38;;
28028;SDS011;15345;59.364;18.016;2022-10-16T05:26:02;7.72;;;6.00;;
28028;SDS011;15345;59.364;18.016;2022-10-16T05:27:21;7.30;;;6.57;;
28028;SDS011;15345;59.364;18.016;2022-10-16T05:28:40;7.65;;;6.22;;
28028;SDS011;15345;59.364;18.016;2022-10-16T05:29:59;7.45;;;6.75;;
28028;SDS011;15345;59.364;18.016;2022-10-16T05:31:18;7.88;;;6.93;;
28028;SDS011;15345;59.364;18.016;2022-10-16T05:32:36;9.40;;;6.97;;
28028;SDS011;15345;59.364;18.016;2022-10-16T05:33:59;7.05;;;6.35;;
28028;SDS011;15345;59.364;18.016;2022-10-16T05:36:37;8.07;;;7.20;;
28028;SDS011;15345;59.364;18.016;2022-10-16T05:37:56;8.70;;;7.72;;
28028;SDS011;15345;59.364;18.016;2022-10-16T05:39:15;9.77;;;7.35;;
28028;SDS011;15345;59.364;18.016;2022-10-16T05:40:34;8.63;;;7.45;;
28028;SDS011;15345;59.364;18.016;2022-10-16T05:41:53;8.45;;;7.15;;
28028;SDS011;15345;59.364;18.016;2022-10-16T05:43:12;8.27;;;7.40;;
28028;SDS011;15345;59.364;18.016;2022-10-16T05:44:32;8.55;;;7.68;;
28028;SDS011;15345;59.364;18.016;2022-10-16T05:45:55;7.97;;;7.28;;
28028;SDS011;15345;59.364;18.016;2022-10-16T05:48:33;10.32;;;7.57;;
28028;SDS011;15345;59.364;18.016;2022-10-16T05:49:52;8.88;;;7.97;;
28028;SDS011;15345;59.364;18.016;2022-10-16T05:51:12;10.73;;;8.00;;
28028;SDS011;15345;59.364;18.016;2022-10-16T05:52:31;9.90;;;8.55;;
28028;SDS011;15345;59.364;18.016;2022-10-16T05:53:51;12.68;;;8.40;;
28028;SDS011;15345;59.364;18.016;2022-10-16T05:55:10;12.25;;;8.65;;
28028;SDS011;15345;59.364;18.016;2022-10-16T05:56:29;10.80;;;8.27;;
28028;SDS011;15345;59.364;18.016;2022-10-16T05:57:48;10.02;;;8.98;;
28028;SDS011;15345;59.364;18.016;2022-10-16T05:59:07;12.10;;;8.95;;
28028;SDS011;15345;59.364;18.016;2022-10-16T06:00:26;11.23;;;9.15;;
28028;SDS011;15345;59.364;18.016;2022-10-16T06:01:45;10.25;;;9.20;;
28028;SDS011;15345;59.364;18.016;2022-10-16T06:03:04;11.63;;;9.45;;
28028;SDS011;15345;59.364;18.016;2022-10-16T06:04:25;13.25;;;9.27;;
28028;SDS011;15345;59.364;18.016;2022-10-16T06:05:44;17.85;;;9.20;;
28028;SDS011;15345;59.364;18.016;2022-10-16T06:07:03;8.93;;;7.97;;
28028;SDS011;15345;59.364;18.016;2022-10-16T06:08:22;10.05;;;9.05;;
28028;SDS011;15345;59.364;18.016;2022-10-16T06:09:41;13.98;;;8.80;;
28028;SDS011;15345;59.364;18.016;2022-10-16T06:11:04;11.43;;;9.07;;
28028;SDS011;15345;59.364;18.016;2022-10-16T06:12:23;10.07;;;8.80;;
28028;SDS011;15345;59.364;18.016;2022-10-16T06:13:42;10.52;;;9.43;;
28028;SDS011;15345;59.364;18.016;2022-10-16T06:15:01;11.02;;;9.43;;
28028;SDS011;15345;59.364;18.016;2022-10-16T06:16:20;12.15;;;9.50;;
28028;SDS011;15345;59.364;18.016;2022-10-16T06:17:39;14.50;;;10.35;;
28028;SDS011;15345;59.364;18.016;2022-10-16T06:18:58;14.35;;;9.20;;
28028;SDS011;15345;59.364;18.016;2022-10-16T06:20:18;16.20;;;10.93;;
28028;SDS011;15345;59.364;18.016;2022-10-16T06:21:37;11.57;;;10.25;;
28028;SDS011;15345;59.364;18.016;2022-10-16T06:22:56;12.23;;;10.70;;
28028;SDS011;15345;59.364;18.016;2022-10-16T06:24:15;14.40;;;10.98;;
28028;SDS011;15345;59.364;18.016;2022-10-16T06:25:35;15.65;;;11.60;;
28028;SDS011;15345;59.364;18.016;2022-10-16T06:26:54;13.75;;;11.23;;
28028;SDS011;15345;59.364;18.016;2022-10-16T06:28:13;13.70;;;11.50;;
28028;SDS011;15345;59.364;18.016;2022-10-16T06:29:33;13.93;;;11.35;;
28028;SDS011;15345;59.364;18.016;2022-10-16T06:30:58;16.15;;;13.50;;
28028;SDS011;15345;59.364;18.016;2022-10-16T06:32:17;16.42;;;13.10;;
28028;SDS011;15345;59.364;18.016;2022-10-16T06:33:37;15.65;;;11.90;;
28028;SDS011;15345;59.364;18.016;2022-10-16T06:34:56;16.38;;;12.65;;
28028;SDS011;15345;59.364;18.016;2022-10-16T06:36:16;18.30;;;12.32;;
28028;SDS011;15345;59.364;18.016;2022-10-16T06:37:35;15.02;;;12.63;;
28028;SDS011;15345;59.364;18.016;2022-10-16T06:38:54;13.15;;;11.75;;
28028;SDS011;15345;59.364;18.016;2022-10-16T06:40:13;14.60;;;12.98;;
28028;SDS011;15345;59.364;18.016;2022-10-16T06:41:33;14.90;;;12.50;;
28028;SDS011;15345;59.364;18.016;2022-10-16T06:42:54;16.88;;;14.00;;
28028;SDS011;15345;59.364;18.016;2022-10-16T06:44:13;16.40;;;13.02;;
28028;SDS011;15345;59.364;18.016;2022-10-16T06:45:32;15.43;;;12.35;;
28028;SDS011;15345;59.364;18.016;2022-10-16T06:46:51;14.70;;;11.80;;
28028;SDS011;15345;59.364;18.016;2022-10-16T06:48:10;16.42;;;13.05;;
28028;SDS011;15345;59.364;18.016;2022-10-16T06:49:29;15.50;;;13.60;;
28028;SDS011;15345;59.364;18.016;2022-10-16T06:50:57;19.75;;;12.80;;
28028;SDS011;15345;59.364;18.016;2022-10-16T06:52:16;14.73;;;13.02;;
28028;SDS011;15345;59.364;18.016;2022-10-16T06:53:36;16.67;;;12.93;;
28028;SDS011;15345;59.364;18.016;2022-10-16T06:54:55;15.18;;;13.30;;
28028;SDS011;15345;59.364;18.016;2022-10-16T06:56:23;15.32;;;12.55;;
28028;SDS011;15345;59.364;18.016;2022-10-16T06:57:43;18.25;;;13.40;;
28028;SDS011;15345;59.364;18.016;2022-10-16T06:59:02;15.85;;;13.10;;
28028;SDS011;15345;59.364;18.016;2022-10-16T07:00:21;15.63;;;12.25;;
28028;SDS011;15345;59.364;18.016;2022-10-16T07:01:40;18.13;;;13.63;;
28028;SDS011;15345;59.364;18.016;2022-10-16T07:02:58;17.95;;;12.88;;
28028;SDS011;15345;59.364;18.016;2022-10-16T07:04:17;15.13;;;12.75;;
28028;SDS011;15345;59.364;18.016;2022-10-16T07:05:40;16.40;;;12.60;;
28028;SDS011;15345;59.364;18.016;2022-10-16T07:07:00;18.63;;;13.18;;
28028;SDS011;15345;59.364;18.016;2022-10-16T07:08:19;20.98;;;12.85;;
28028;SDS011;15345;59.364;18.016;2022-10-16T07:09:38;15.40;;;12.75;;
28028;SDS011;15345;59.364;18.016;2022-10-16T07:11:02;19.15;;;12.55;;
28028;SDS011;15345;59.364;18.016;2022-10-16T07:12:21;16.60;;;13.23;;
28028;SDS011;15345;59.364;18.016;2022-10-16T07:13:41;13.15;;;11.80;;
28028;SDS011;15345;59.364;18.016;2022-10-16T07:15:00;13.63;;;12.05;;
28028;SDS011;15345;59.364;18.016;2022-10-16T07:16:20;18.38;;;12.52;;
28028;SDS011;15345;59.364;18.016;2022-10-16T07:17:39;19.13;;;11.18;;
28028;SDS011;15345;59.364;18.016;2022-10-16T07:18:59;12.60;;;10.85;;
28028;SDS011;15345;59.364;18.016;2022-10-16T07:20:18;16.58;;;10.80;;
28028;SDS011;15345;59.364;18.016;2022-10-16T07:21:37;17.40;;;12.57;;
28028;SDS011;15345;59.364;18.016;2022-10-16T07:23:05;12.68;;;10.88;;
28028;SDS011;15345;59.364;18.016;2022-10-16T07:24:30;13.70;;;10.80;;
28028;SDS011;15345;59.364;18.016;2022-10-16T07:25:56;13.48;;;10.40;;
28028;SDS011;15345;59.364;18.016;2022-10-16T07:27:27;16.70;;;10.35;;
28028;SDS011;15345;59.364;18.016;2022-10-16T07:28:46;12.07;;;10.02;;
28028;SDS011;15345;59.364;18.016;2022-10-16T07:30:06;13.65;;;10.93;;
28028;SDS011;15345;59.364;18.016;2022-10-16T07:31:25;12.23;;;10.75;;
28028;SDS011;15345;59.364;18.016;2022-10-16T07:32:44;13.80;;;9.70;;
28028;SDS011;15345;59.364;18.016;2022-10-16T07:34:02;10.80;;;9.73;;
28028;SDS011;15345;59.364;18.016;2022-10-16T07:35:21;11.35;;;10.05;;
28028;SDS011;15345;59.364;18.016;2022-10-16T07:36:40;12.25;;;9.98;;
28028;SDS011;15345;59.364;18.016;2022-10-16T07:37:59;11.57;;;9.98;;
28028;SDS011;15345;59.364;18.016;2022-10-16T07:39:18;10.38;;;8.65;;
28028;SDS011;15345;59.364;18.016;2022-10-16T07:40:37;11.80;;;9.32;;
28028;SDS011;15345;59.364;18.016;2022-10-16T07:41:56;10.40;;;9.23;;
28028;SDS011;15345;59.364;18.016;2022-10-16T07:43:15;10.35;;;8.55;;
28028;SDS011;15345;59.364;18.016;2022-10-16T07:44:34;9.18;;;8.43;;
28028;SDS011;15345;59.364;18.016;2022-10-16T07:45:53;9.65;;;8.55;;
28028;SDS011;15345;59.364;18.016;2022-10-16T07:47:13;10.65;;;8.38;;
28028;SDS011;15345;59.364;18.016;2022-10-16T07:48:33;10.50;;;8.73;;
28028;SDS011;15345;59.364;18.016;2022-10-16T07:49:52;10.07;;;8.23;;
28028;SDS011;15345;59.364;18.016;2022-10-16T07:51:15;11.32;;;8.00;;
28028;SDS011;15345;59.364;18.016;2022-10-16T07:52:34;8.48;;;7.60;;
28028;SDS011;15345;59.364;18.016;2022-10-16T07:53:53;8.50;;;7.70;;
28028;SDS011;15345;59.364;18.016;2022-10-16T07:55:12;10.55;;;7.75;;
28028;SDS011;15345;59.364;18.016;2022-10-16T07:56:31;7.28;;;6.55;;